CST,Max TemperatureF,Mean TemperatureF,Min TemperatureF,Max Dew PointF,MeanDew PointF,Min DewpointF,Max Humidity, Mean Humidity, Min Humidity, Max Sea Level PressureIn, Mean Sea Level PressureIn, Min Sea Level PressureIn, Max VisibilityMiles, Mean VisibilityMiles, Min VisibilityMiles, Max Wind SpeedMPH, Mean Wind SpeedMPH, Max Gust SpeedMPH,PrecipitationIn, CloudCover, Events, WindDirDegrees
2012-11-1,75,55,35,43,38,32,93,59,27,30.04,29.98,29.92,10,9,3,9,1,,0.00,0,,207
2012-11-2,82,62,42,50,45,39,93,61,26,29.94,29.87,29.77,10,10,5,22,5,25,0.00,0,,166
2012-11-3,62,52,41,46,35,34,76,58,34,30.20,30.11,29.89,10,10,4,16,9,22,0.00,0,,351
2012-11-4,64,48,33,39,35,32,93,65,34,30.23,30.15,30.06,10,9,3,9,2,,0.00,0,,151
2012-11-5,51,48,44,43,39,37,82,70,58,30.13,30.07,29.99,10,10,10,22,9,29,0.00,6,Rain,334
2012-11-6,64,50,35,39,34,28,100,62,27,30.12,30.09,30.03,10,9,5,20,5,24,0.00,2,,300
2012-11-7,60,46,33,32,30,27,75,49,29,30.21,30.13,30.10,10,10,7,13,6,,0.00,0,,27
2012-11-8,69,53,37,45,38,30,81,54,30,30.10,29.97,29.86,10,10,7,25,9,31,0.00,0,,164
2012-11-9,77,66,55,59,53,43,88,66,50,29.90,29.84,29.78,10,10,10,30,20,34,0.00,0,,180
2012-11-10,73,68,62,57,54,54,77,62,50,29.89,29.80,29.71,10,10,10,37,23,45,0.00,1,,177
2012-11-11,69,50,28,59,38,25,100,83,60,30.29,29.97,29.67,10,9,4,29,16,34,0.00,6,Rain-Thunderstorm,308
2012-11-12,50,38,26,30,25,21,93,69,32,30.47,30.41,30.30,10,10,10,17,5,24,0.00,0,,247
2012-11-13,55,42,30,32,28,23,93,63,30,30.48,30.42,30.33,10,10,10,10,5,16,0.00,0,,184
2012-11-14,55,42,30,32,29,27,93,64,33,30.41,30.34,30.27,10,10,5,12,3,16,0.00,0,,170
2012-11-15,59,46,32,36,32,28,93,65,34,30.37,30.31,30.26,10,10,10,9,1,,0.00,0,,182
2012-11-16,60,46,32,39,34,30,100,72,34,30.45,30.39,30.35,10,10,7,5,1,,0.00,0,,74
2012-11-17,59,46,32,36,30,21,100,63,25,30.40,30.33,30.27,10,10,5,17,4,24,0.00,0,,167
2012-11-18,60,48,37,37,33,30,81,56,36,30.29,30.22,30.15,10,10,10,24,8,31,0.00,2,Rain,166
2012-11-19,68,57,46,50,45,41,93,72,49,30.18,30.13,30.09,10,10,7,20,11,23,0.00,2,Rain,193
2012-11-20,64,50,35,46,41,36,100,73,40,30.24,30.20,30.14,10,8,0,12,2,,0.00,1,Fog,9
2012-11-21,71,52,33,46,38,32,100,63,25,30.26,30.16,30.02,10,10,7,18,4,22,0.00,0,,175
2012-11-22,73,62,50,52,45,39,67,54,42,30.27,30.00,29.88,10,10,10,26,17,36,0.00,2,,192
2012-11-23,50,40,30,37,25,18,87,58,36,30.53,30.45,30.27,10,10,10,23,11,29,0.00,0,,337
2012-11-24,51,37,23,27,22,19,93,58,30,30.45,30.21,29.98,10,10,10,20,6,25,0.00,0,,182
2012-11-25,59,46,33,32,29,25,81,57,33,29.97,29.92,29.86,10,10,10,12,7,,0.00,0,,141
2012-11-26,46,37,28,32,29,23,93,74,43,30.45,30.16,29.94,10,10,10,26,13,38,0.00,3,,21
2012-11-27,42,32,21,27,22,19,93,72,46,30.49,30.40,30.30,10,10,7,9,6,,0.00,0,,79
2012-11-28,55,39,23,34,28,21,93,68,41,30.42,30.31,30.19,10,10,7,14,4,17,0.00,0,,162
2012-11-29,68,52,37,41,34,30,81,55,26,30.19,30.08,29.98,10,10,10,20,12,26,0.00,0,,181
2012-11-30,62,50,39,54,43,34,100,75,62,30.10,30.05,30.00,10,8,0,15,8,18,0.00,2,Fog,182